Time;durP1;ratioP1;P1;durP2;ratioP2;P2;SDS_P1;SDS_P2;PMS_P1;PMS_P2;Temp;Humidity;BMP_temperature;BMP_pressure;BME280_temperature;BME280_humidity;BME280_pressure;Samples;Min_cycle;Max_cycle;Signal;HPM_P1;HPM_P2
2022/05/31 00:02:15;;;;;;;5.37;5.07;;;;;;;22.01;91.72;99293.44;5013790;28;20202;-67
2022/05/31 00:04:42;;;;;;;4.90;4.60;;;;;;;22.00;91.68;99299.63;5013639;28;20200;-67
2022/05/31 00:07:08;;;;;;;4.77;4.47;;;;;;;21.91;91.59;99295.94;5013541;28;20581;-67
2022/05/31 00:09:35;;;;;;;4.90;4.43;;;;;;;21.84;92.14;99294.72;5013679;28;20227;-67
2022/05/31 00:12:03;;;;;;;4.90;4.70;;;;;;;21.84;91.80;99305.16;5013515;28;20198;-67
2022/05/31 00:14:32;;;;;;;5.23;4.80;;;;;;;21.79;92.06;99306.47;5013338;28;20216;-67
2022/05/31 00:16:59;;;;;;;4.17;3.87;;;;;;;21.72;92.60;99313.94;5013192;28;20203;-67
2022/05/31 00:19:27;;;;;;;4.43;4.23;;;;;;;21.68;93.03;99312.50;5013185;28;20277;-67
2022/05/31 00:22:00;;;;;;;4.47;4.17;;;;;;;21.56;93.20;99300.41;5013274;28;20578;-67
2022/05/31 00:24:26;;;;;;;4.27;4.07;;;;;;;21.63;93.10;99317.25;5013234;28;20205;-67
2022/05/31 00:26:53;;;;;;;4.70;4.33;;;;;;;21.62;92.93;99312.13;5012953;28;20218;-67
2022/05/31 00:29:20;;;;;;;4.53;4.33;;;;;;;21.54;92.94;99312.75;5013045;28;20297;-67
2022/05/31 00:31:50;;;;;;;4.90;4.60;;;;;;;21.47;93.62;99306.34;5012903;28;20209;-67
2022/05/31 00:34:18;;;;;;;4.90;4.63;;;;;;;21.48;93.76;99310.63;5013109;28;20568;-67
2022/05/31 00:36:48;;;;;;;4.57;4.27;;;;;;;21.46;93.83;99305.50;5012552;28;20238;-67
2022/05/31 00:39:15;;;;;;;5.10;4.70;;;;;;;21.38;94.95;99305.25;5012783;28;20663;-67
2022/05/31 00:41:43;;;;;;;4.13;3.83;;;;;;;21.40;94.91;99321.63;5011620;28;20199;-67
2022/05/31 00:44:11;;;;;;;5.17;4.77;;;;;;;21.37;95.37;99326.22;5010081;28;20199;-67
2022/05/31 00:46:46;;;;;;;4.53;4.23;;;;;;;21.39;95.05;99322.56;5012832;28;20204;-67
2022/05/31 00:49:25;;;;;;;4.87;4.57;;;;;;;21.32;94.84;99300.53;5012547;28;20199;-67
2022/05/31 00:51:56;;;;;;;5.00;4.70;;;;;;;21.44;94.36;99324.81;5012893;28;20299;-67
2022/05/31 00:54:25;;;;;;;4.47;4.17;;;;;;;21.33;94.69;99304.75;5011285;28;20218;-67
2022/05/31 00:56:54;;;;;;;4.20;3.90;;;;;;;21.41;94.63;99318.06;5011589;28;20667;-67
2022/05/31 00:59:23;;;;;;;4.90;4.70;;;;;;;21.42;94.70;99305.88;5012287;28;20202;-67
2022/05/31 01:01:53;;;;;;;5.03;4.60;;;;;;;21.43;94.63;99315.31;5012899;28;20214;-67
2022/05/31 01:04:26;;;;;;;5.70;4.40;;;;;;;21.41;94.56;99317.25;5012294;28;20683;-67
2022/05/31 01:06:56;;;;;;;4.00;3.80;;;;;;;21.43;94.15;99307.50;5012508;28;20582;-67
2022/05/31 01:09:23;;;;;;;4.27;4.07;;;;;;;21.44;93.46;99312.63;5012377;28;20203;-67
2022/05/31 01:11:50;;;;;;;4.53;4.33;;;;;;;21.38;93.82;99307.03;5012462;28;20575;-67
2022/05/31 01:14:17;;;;;;;5.40;5.00;;;;;;;21.42;94.14;99319.72;5010577;28;20220;-67
2022/05/31 01:16:58;;;;;;;4.87;4.40;;;;;;;21.40;94.85;99315.56;5011250;28;20201;-67
2022/05/31 01:22:11;;;;;;;4.97;4.60;;;;;;;21.38;94.92;99315.69;5010754;28;20213;-67
2022/05/31 01:24:46;;;;;;;5.67;4.97;;;;;;;21.35;95.00;99313.31;5011058;28;20195;-67
2022/05/31 01:27:25;;;;;;;6.60;6.00;;;;;;;21.35;95.29;99317.69;5010874;28;20198;-66
2022/05/31 01:29:53;;;;;;;6.37;5.87;;;;;;;21.31;95.91;99322.31;5012288;28;20593;-67
2022/05/31 01:32:20;;;;;;;6.87;6.37;;;;;;;21.28;95.89;99327.75;5011786;28;20203;-66
2022/05/31 01:34:53;;;;;;;9.13;6.13;;;;;;;21.19;95.98;99317.19;5012517;28;20567;-67
2022/05/31 01:37:26;;;;;;;6.60;6.10;;;;;;;21.21;96.54;99330.94;5012407;28;20233;-67
2022/05/31 01:39:58;;;;;;;6.93;6.53;;;;;;;21.15;96.89;99328.78;5006166;28;20222;-67
2022/05/31 01:42:33;;;;;;;6.87;6.33;;;;;;;21.11;96.92;99325.56;5011193;28;20198;-67
2022/05/31 01:45:06;;;;;;;8.17;7.03;;;;;;;21.05;97.24;99331.22;5011957;28;20204;-67
2022/05/31 01:47:34;;;;;;;9.87;7.10;;;;;;;21.01;97.11;99342.81;5011499;28;20737;-67
2022/05/31 01:50:02;;;;;;;7.73;5.60;;;;;;;20.92;96.93;99335.66;5011167;28;20198;-67
2022/05/31 01:52:33;;;;;;;6.93;6.33;;;;;;;20.94;96.88;99347.63;5011538;28;20202;-67
2022/05/31 01:55:01;;;;;;;5.67;5.37;;;;;;;20.97;96.73;99350.97;5011675;28;20609;-67
2022/05/31 01:57:31;;;;;;;5.40;5.00;;;;;;;20.90;96.64;99356.63;5011727;28;20241;-67
2022/05/31 02:00:05;;;;;;;5.87;5.50;;;;;;;20.81;96.30;99361.66;5011805;28;20224;-67
2022/05/31 02:02:32;;;;;;;6.17;5.60;;;;;;;20.65;97.01;99356.75;5011450;28;20201;-67
2022/05/31 02:04:59;;;;;;;7.07;6.50;;;;;;;20.61;97.59;99363.13;5011680;28;20195;-67
2022/05/31 02:07:27;;;;;;;5.30;4.97;;;;;;;20.55;98.14;99353.13;5011187;28;20209;-67
2022/05/31 02:09:55;;;;;;;5.53;5.13;;;;;;;20.56;98.16;99360.00;5011411;28;20213;-67
2022/05/31 02:12:24;;;;;;;5.07;4.77;;;;;;;20.52;97.50;99366.38;5011364;28;20197;-67
2022/05/31 02:14:51;;;;;;;5.27;4.77;;;;;;;20.47;97.60;99373.69;5010161;28;20225;-67
2022/05/31 02:17:18;;;;;;;5.33;4.20;;;;;;;20.43;97.72;99370.47;5011430;28;20198;-67
2022/05/31 02:19:46;;;;;;;5.43;4.93;;;;;;;20.11;99.43;99355.41;5011008;28;20225;-67
2022/05/31 02:22:15;;;;;;;4.33;4.13;;;;;;;20.11;100.00;99363.22;5011399;28;20198;-67
2022/05/31 02:24:42;;;;;;;4.77;4.37;;;;;;;20.13;100.00;99362.16;5011579;28;20205;-67
2022/05/31 02:27:12;;;;;;;5.10;4.80;;;;;;;20.19;100.00;99380.00;5011161;28;20204;-67
2022/05/31 02:29:40;;;;;;;5.40;5.10;;;;;;;20.19;100.00;99376.56;5011186;28;20663;-67
2022/05/31 02:32:10;;;;;;;4.47;4.27;;;;;;;20.20;100.00;99380.78;5011231;28;20678;-67
2022/05/31 02:34:39;;;;;;;5.43;4.67;;;;;;;20.11;100.00;99373.63;5011018;28;20209;-65
2022/05/31 02:37:06;;;;;;;5.67;5.10;;;;;;;20.22;100.00;99391.97;5010629;28;20226;-67
2022/05/31 02:39:33;;;;;;;4.73;4.33;;;;;;;20.13;100.00;99374.38;5010093;28;20217;-66
2022/05/31 02:42:02;;;;;;;4.67;4.47;;;;;;;20.19;100.00;99392.19;5010976;28;20210;-67
2022/05/31 02:44:30;;;;;;;4.87;4.57;;;;;;;20.18;100.00;99391.34;5011047;28;20198;-67
2022/05/31 02:46:57;;;;;;;4.47;4.17;;;;;;;20.20;100.00;99388.59;5011076;28;20686;-66
2022/05/31 02:49:24;;;;;;;5.77;4.80;;;;;;;20.21;100.00;99405.91;5011034;28;20198;-66
2022/05/31 02:51:51;;;;;;;5.83;4.67;;;;;;;20.20;100.00;99399.03;5011042;28;20206;-67
2022/05/31 02:54:20;;;;;;;4.77;4.37;;;;;;;20.17;100.00;99404.44;5011128;28;20218;-67
2022/05/31 02:56:47;;;;;;;5.03;4.63;;;;;;;20.10;100.00;99400.59;5008233;28;20230;-67
2022/05/31 02:59:14;;;;;;;10.10;5.07;;;;;;;19.94;100.00;99403.41;5009993;28;20599;-67
2022/05/31 03:01:43;;;;;;;6.23;5.83;;;;;;;19.81;100.00;99390.41;5011497;28;20206;-66
2022/05/31 03:04:12;;;;;;;6.37;5.97;;;;;;;19.80;100.00;99401.78;5014899;28;20659;-67
2022/05/31 03:06:40;;;;;;;7.20;6.70;;;;;;;19.76;100.00;99405.53;5014319;28;20205;-66
2022/05/31 03:09:08;;;;;;;7.60;7.10;;;;;;;19.75;100.00;99403.84;5014619;28;20205;-67
2022/05/31 03:11:49;;;;;;;7.47;6.77;;;;;;;19.76;100.00;99399.47;5014588;28;20252;-67
2022/05/31 03:14:21;;;;;;;6.83;6.33;;;;;;;19.71;100.00;99397.19;5014372;28;20221;-67
2022/05/31 03:16:53;;;;;;;7.37;6.77;;;;;;;19.55;100.00;99401.75;5014188;28;20198;-66
2022/05/31 03:19:24;;;;;;;7.50;6.87;;;;;;;19.50;100.00;99401.22;5014294;28;20256;-67
2022/05/31 03:21:55;;;;;;;6.90;6.30;;;;;;;19.55;100.00;99406.94;5013400;28;20221;-67
2022/05/31 03:24:25;;;;;;;7.67;7.07;;;;;;;19.53;100.00;99403.63;5014132;28;20198;-67
2022/05/31 03:26:56;;;;;;;7.20;6.20;;;;;;;19.66;100.00;99419.25;5014112;28;20214;-67
2022/05/31 03:29:23;;;;;;;7.53;7.13;;;;;;;19.70;100.00;99418.94;5014436;28;20574;-66
2022/05/31 03:31:51;;;;;;;5.67;4.90;;;;;;;19.79;100.00;99423.53;5013204;28;20206;-66
2022/05/31 03:34:18;;;;;;;10.00;6.33;;;;;;;19.86;100.00;99416.97;5010979;28;20224;-66
2022/05/31 03:36:45;;;;;;;9.97;5.67;;;;;;;19.97;100.00;99418.00;5010734;28;20714;-67
2022/05/31 03:39:12;;;;;;;7.53;5.87;;;;;;;20.10;100.00;99418.81;5013995;28;20201;-67
2022/05/31 03:41:39;;;;;;;6.23;5.67;;;;;;;20.22;100.00;99420.59;5014113;28;20210;-66
2022/05/31 03:44:06;;;;;;;8.10;6.17;;;;;;;20.29;100.00;99425.28;5014018;28;20675;-66
2022/05/31 03:46:33;;;;;;;5.83;5.43;;;;;;;20.35;100.00;99426.66;5014223;28;20202;-67
2022/05/31 03:49:02;;;;;;;7.77;6.10;;;;;;;20.39;100.00;99433.28;5013801;28;20205;-66
2022/05/31 03:51:28;;;;;;;6.50;6.07;;;;;;;20.38;100.00;99434.25;5013842;28;20705;-66
2022/05/31 03:53:55;;;;;;;7.17;6.07;;;;;;;20.43;100.00;99426.94;5013751;28;20207;-66
2022/05/31 03:56:22;;;;;;;7.40;5.77;;;;;;;20.22;100.00;99408.41;5013863;28;20236;-66
2022/05/31 03:58:49;;;;;;;6.10;5.57;;;;;;;20.34;100.00;99436.22;5013477;28;20297;-66
2022/05/31 04:01:16;;;;;;;5.97;5.47;;;;;;;20.45;100.00;99442.47;5013617;28;20202;-66
2022/05/31 04:03:43;;;;;;;8.53;5.40;;;;;;;20.57;100.00;99428.56;5013581;28;20561;-66
2022/05/31 04:06:11;;;;;;;5.40;5.10;;;;;;;20.72;100.00;99435.28;5013579;28;20254;-67
2022/05/31 04:08:38;;;;;;;5.37;4.97;;;;;;;20.90;99.38;99444.41;5013341;28;20335;-66
2022/05/31 04:11:05;;;;;;;5.67;5.27;;;;;;;21.08;98.62;99460.50;5013894;28;20206;-68
2022/05/31 04:13:32;;;;;;;5.37;5.03;;;;;;;21.28;98.06;99459.91;5013252;28;20213;-66
2022/05/31 04:16:07;;;;;;;6.00;5.50;;;;;;;21.49;96.00;99450.50;5013439;28;20215;-67
2022/05/31 04:18:34;;;;;;;6.20;5.80;;;;;;;21.57;94.56;99461.22;5012132;28;20198;-67
2022/05/31 04:21:02;;;;;;;7.77;5.57;;;;;;;21.70;94.38;99453.31;5012884;28;20213;-67
2022/05/31 04:26:16;;;;;;;6.13;5.83;;;;;;;22.03;93.18;99455.19;5013182;28;20201;-67
2022/05/31 04:28:42;;;;;;;6.20;5.80;;;;;;;21.95;92.85;99451.38;5012556;28;20591;-67
2022/05/31 04:31:09;;;;;;;6.03;5.63;;;;;;;22.16;93.24;99456.75;5011952;28;20211;-67
2022/05/31 04:33:37;;;;;;;6.33;5.93;;;;;;;22.22;93.77;99460.66;5012829;28;20215;-67
2022/05/31 04:36:06;;;;;;;7.30;6.87;;;;;;;22.28;93.21;99460.19;5013167;28;20220;-67
2022/05/31 04:38:35;;;;;;;6.50;5.97;;;;;;;22.35;92.41;99441.31;5012762;28;20216;-67
2022/05/31 04:41:02;;;;;;;9.33;6.90;;;;;;;22.75;92.61;99459.94;5012751;28;20201;-68
2022/05/31 04:43:29;;;;;;;7.20;6.57;;;;;;;22.79;89.89;99450.91;5012368;28;20289;-66
2022/05/31 04:45:56;;;;;;;7.23;6.87;;;;;;;23.11;89.14;99468.41;5012655;28;20195;-67
2022/05/31 04:48:23;;;;;;;7.00;6.53;;;;;;;23.30;88.89;99474.63;5012682;28;20209;-67
2022/05/31 04:50:50;;;;;;;7.50;6.80;;;;;;;23.52;88.54;99471.16;5012612;28;20206;-67
2022/05/31 04:53:17;;;;;;;8.17;7.00;;;;;;;23.76;88.06;99463.88;5012464;28;20194;-67
2022/05/31 04:55:46;;;;;;;7.70;7.00;;;;;;;23.97;86.25;99464.69;5012502;28;20218;-67
2022/05/31 04:58:13;;;;;;;7.50;6.80;;;;;;;24.18;86.34;99467.31;5012952;28;20198;-67
2022/05/31 05:00:39;;;;;;;9.47;6.60;;;;;;;24.44;84.93;99465.09;5012239;28;20226;-67
2022/05/31 05:03:06;;;;;;;6.93;6.50;;;;;;;24.60;85.34;99469.81;5012433;28;20202;-68
2022/05/31 05:05:34;;;;;;;7.73;6.70;;;;;;;24.71;82.17;99473.19;5012337;28;20190;-67
2022/05/31 05:08:01;;;;;;;6.97;6.30;;;;;;;24.97;84.76;99474.41;5012382;28;20190;-68
2022/05/31 05:10:28;;;;;;;7.03;6.63;;;;;;;25.18;81.25;99471.63;5012324;28;20210;-67
2022/05/31 05:12:56;;;;;;;6.67;6.07;;;;;;;25.39;80.18;99479.41;5010860;28;20213;-67
2022/05/31 05:15:23;;;;;;;6.53;6.13;;;;;;;25.66;79.94;99474.28;5012317;28;20213;-67
2022/05/31 05:17:50;;;;;;;6.23;5.83;;;;;;;25.69;79.11;99479.25;5012255;28;20682;-67
2022/05/31 05:20:17;;;;;;;5.70;5.40;;;;;;;25.82;78.04;99479.78;5012323;28;20578;-67
2022/05/31 05:22:44;;;;;;;6.73;6.07;;;;;;;25.96;77.49;99465.41;5012241;28;20662;-67
2022/05/31 05:25:10;;;;;;;6.77;6.37;;;;;;;26.10;77.20;99475.47;5007500;28;20198;-67
2022/05/31 05:27:37;;;;;;;6.17;5.80;;;;;;;26.22;77.12;99474.34;5011815;28;20203;-68
2022/05/31 05:32:53;;;;;;;6.00;5.47;;;;;;;26.62;73.92;99476.69;5011122;28;20205;-67
2022/05/31 05:35:20;;;;;;;5.73;5.33;;;;;;;26.50;74.59;99472.56;5012473;28;20213;-67
2022/05/31 05:37:47;;;;;;;5.13;4.63;;;;;;;26.74;75.07;99480.75;5011877;28;20298;-67
2022/05/31 05:40:14;;;;;;;4.23;4.03;;;;;;;26.97;73.85;99479.41;5011820;28;20199;-67
2022/05/31 05:42:42;;;;;;;4.80;4.60;;;;;;;27.18;73.16;99476.50;5011732;28;20197;-67
2022/05/31 05:45:11;;;;;;;4.50;4.23;;;;;;;27.26;69.14;99473.94;5011840;28;20192;-68
2022/05/31 05:47:38;;;;;;;4.63;4.37;;;;;;;27.43;70.03;99483.66;5011589;28;20208;-68
2022/05/31 05:50:07;;;;;;;6.83;3.97;;;;;;;27.61;70.81;99483.66;5011289;28;20223;-68
2022/05/31 05:52:35;;;;;;;4.03;3.83;;;;;;;27.82;69.95;99489.41;5011852;28;20582;-68
2022/05/31 05:55:02;;;;;;;5.00;4.57;;;;;;;27.98;67.62;99483.47;5011242;28;20228;-67
2022/05/31 05:57:29;;;;;;;4.47;4.07;;;;;;;28.00;65.98;99492.84;5011646;28;20210;-68
2022/05/31 05:59:56;;;;;;;3.93;3.63;;;;;;;28.14;66.59;99486.22;5011061;28;20198;-68
2022/05/31 06:02:29;;;;;;;4.97;4.57;;;;;;;28.21;65.36;99473.25;5011454;28;20201;-68
2022/05/31 06:05:02;;;;;;;4.83;4.37;;;;;;;28.50;64.18;99489.53;5009274;28;20689;-68
2022/05/31 06:07:33;;;;;;;4.67;4.47;;;;;;;28.69;65.13;99484.06;5008335;28;20213;-68
2022/05/31 06:10:04;;;;;;;3.87;3.67;;;;;;;28.48;66.00;99486.22;5011357;28;20213;-68
2022/05/31 06:12:37;;;;;;;3.60;3.40;;;;;;;28.62;64.09;99488.28;5005406;28;20598;-68
2022/05/31 06:15:09;;;;;;;5.27;3.50;;;;;;;28.71;63.20;99482.06;5011407;28;20201;-67
2022/05/31 06:17:43;;;;;;;3.23;3.13;;;;;;;29.00;63.80;99471.09;5005541;28;20194;-68
2022/05/31 06:20:11;;;;;;;3.90;3.60;;;;;;;29.01;62.22;99473.59;5011220;28;20202;-68
2022/05/31 06:22:41;;;;;;;3.33;3.13;;;;;;;29.22;60.77;99480.22;5011569;28;20682;-68
2022/05/31 06:25:09;;;;;;;3.97;3.67;;;;;;;29.30;62.45;99472.34;5011116;28;20210;-67
2022/05/31 06:27:36;;;;;;;3.23;3.03;;;;;;;29.34;59.16;99478.97;5010617;28;20194;-68
2022/05/31 06:30:04;;;;;;;4.63;3.20;;;;;;;29.45;58.91;99475.97;5007493;28;20216;-68
2022/05/31 06:32:31;;;;;;;4.43;3.17;;;;;;;29.61;57.87;99466.25;5011102;28;20255;-67
2022/05/31 06:34:59;;;;;;;3.17;2.97;;;;;;;29.79;59.27;99473.97;5012110;28;20563;-68
2022/05/31 06:37:29;;;;;;;6.77;3.17;;;;;;;29.97;58.66;99471.19;5014857;28;20226;-68
2022/05/31 06:39:56;;;;;;;3.43;3.13;;;;;;;30.07;57.47;99474.47;5015234;28;20205;-68
2022/05/31 06:42:23;;;;;;;4.03;3.50;;;;;;;30.21;57.55;99477.25;5015006;28;20696;-67
2022/05/31 06:44:50;;;;;;;3.87;3.40;;;;;;;30.43;57.88;99480.19;5015353;28;20194;-68
2022/05/31 06:47:17;;;;;;;3.73;3.53;;;;;;;30.71;57.26;99473.47;5015038;28;20198;-67
2022/05/31 06:49:44;;;;;;;3.60;3.40;;;;;;;30.95;54.17;99470.72;5015021;28;20206;-68
2022/05/31 06:57:44;;;;;;;4.27;4.03;;;;;;;31.44;52.19;99465.09;5014796;28;20610;-68
2022/05/31 07:00:15;;;;;;;4.28;3.95;;;;;;;31.61;53.96;99466.63;5015229;28;20682;-68
2022/05/31 07:02:41;;;;;;;3.58;3.38;;;;;;;31.35;52.00;99463.47;5013829;28;20198;-68
2022/05/31 07:05:11;;;;;;;4.60;4.40;;;;;;;31.11;53.46;99457.38;5014979;28;20205;-68
2022/05/31 07:07:39;;;;;;;3.53;3.22;;;;;;;31.09;56.21;99438.19;5014578;28;20198;-68
2022/05/31 07:10:08;;;;;;;4.47;4.28;;;;;;;31.46;55.75;99457.78;5014709;28;20206;-68
2022/05/31 07:12:35;;;;;;;4.38;4.18;;;;;;;31.36;56.81;99459.84;5014327;28;20211;-67
2022/05/31 07:15:04;;;;;;;3.65;3.45;;;;;;;31.58;54.01;99467.81;5014690;28;20202;-68
2022/05/31 07:17:30;;;;;;;3.85;3.65;;;;;;;31.66;50.51;99464.28;5014411;28;20288;-67
2022/05/31 07:19:58;;;;;;;4.40;3.90;;;;;;;31.82;51.77;99461.47;5014839;28;20217;-68
2022/05/31 07:22:24;;;;;;;4.35;4.15;;;;;;;32.03;54.10;99458.09;5012546;28;20710;-68
2022/05/31 07:24:53;;;;;;;3.83;3.63;;;;;;;32.07;52.22;99462.91;5013528;28;20228;-68
2022/05/31 07:27:19;;;;;;;4.00;3.80;;;;;;;32.28;50.62;99461.34;5011915;28;20205;-68
2022/05/31 07:29:46;;;;;;;4.13;3.83;;;;;;;32.13;50.57;99462.16;5014096;28;20194;-69
2022/05/31 07:32:13;;;;;;;3.95;3.75;;;;;;;32.14;51.15;99466.47;5013868;28;20206;-69
2022/05/31 07:34:40;;;;;;;3.95;3.75;;;;;;;32.35;52.05;99467.53;5014362;28;20225;-69
2022/05/31 07:37:07;;;;;;;4.45;4.25;;;;;;;32.52;51.59;99463.69;5013963;28;20776;-68
2022/05/31 07:39:34;;;;;;;4.65;4.03;;;;;;;32.35;49.88;99457.75;5014221;28;20210;-68
2022/05/31 07:42:02;;;;;;;4.68;4.47;;;;;;;32.07;49.68;99457.59;5013915;28;20583;-69
2022/05/31 07:44:29;;;;;;;4.35;3.83;;;;;;;32.03;50.40;99458.91;5016537;28;20206;-69
2022/05/31 07:46:56;;;;;;;3.90;3.70;;;;;;;31.95;52.56;99455.53;5011956;28;20198;-68
2022/05/31 07:49:23;;;;;;;4.70;4.35;;;;;;;32.10;51.44;99446.63;5014171;28;20202;-67
2022/05/31 07:51:50;;;;;;;5.80;4.43;;;;;;;32.34;51.43;99457.97;5014065;28;20206;-67
2022/05/31 07:54:17;;;;;;;5.65;4.20;;;;;;;32.45;51.52;99457.47;5014480;28;20198;-68
2022/05/31 07:56:44;;;;;;;6.57;4.20;;;;;;;32.57;51.03;99451.53;5013986;28;20598;-67
2022/05/31 07:59:13;;;;;;;4.10;3.85;;;;;;;32.69;50.22;99441.28;5010542;28;20571;-68
2022/05/31 08:01:40;;;;;;;4.47;4.28;;;;;;;32.88;49.00;99443.34;5014262;28;20689;-68
2022/05/31 08:04:07;;;;;;;4.00;3.80;;;;;;;32.99;49.23;99444.69;5013834;28;20202;-69
2022/05/31 08:06:35;;;;;;;5.90;5.50;;;;;;;33.18;49.20;99436.91;5013868;28;20203;-68
2022/05/31 08:09:04;;;;;;;4.53;4.15;;;;;;;33.30;47.45;99437.25;5013418;28;20197;-68
2022/05/31 08:11:33;;;;;;;4.57;4.25;;;;;;;33.12;47.83;99435.03;5013609;28;20230;-70
2022/05/31 08:14:01;;;;;;;4.60;4.30;;;;;;;33.05;46.96;99434.13;5013461;28;20202;-68
2022/05/31 08:16:29;;;;;;;4.80;4.60;;;;;;;32.88;46.84;99440.69;5013337;28;20221;-69
2022/05/31 08:18:58;;;;;;;4.05;3.80;;;;;;;32.24;47.92;99445.81;5012959;28;20205;-71
2022/05/31 08:21:28;;;;;;;4.55;4.07;;;;;;;31.91;48.57;99438.34;5011041;28;20653;-69
2022/05/31 08:23:56;;;;;;;4.53;4.32;;;;;;;32.13;48.81;99432.97;5013558;28;20717;-66
2022/05/31 08:26:23;;;;;;;4.93;3.83;;;;;;;32.45;47.85;99425.63;5013444;28;20202;-68
2022/05/31 08:28:50;;;;;;;4.65;4.45;;;;;;;32.50;46.27;99444.50;5013335;28;20205;-69
2022/05/31 08:31:22;;;;;;;3.95;3.75;;;;;;;32.48;47.67;99436.69;5013107;28;20217;-68
2022/05/31 08:33:50;;;;;;;4.10;3.80;;;;;;;32.16;47.22;99437.91;5013830;28;20212;-70
2022/05/31 08:36:17;;;;;;;5.38;4.68;;;;;;;31.70;49.06;99431.06;5012552;28;20210;-70
2022/05/31 08:38:44;;;;;;;5.97;4.70;;;;;;;31.91;49.67;99417.94;5013308;28;20202;-68
2022/05/31 08:41:23;;;;;;;5.43;4.85;;;;;;;32.44;50.91;99421.34;5013216;28;20244;-68
2022/05/31 08:44:06;;;;;;;4.90;4.60;;;;;;;32.87;51.48;99412.47;5013515;28;20622;-68
2022/05/31 08:46:43;;;;;;;4.85;4.50;;;;;;;33.28;49.14;99411.88;5013626;28;20195;-68
2022/05/31 08:49:19;;;;;;;4.72;4.32;;;;;;;33.43;47.58;99416.09;5010911;28;20635;-67
2022/05/31 08:51:55;;;;;;;4.78;4.28;;;;;;;33.14;46.62;99422.38;5012826;28;20665;-68
2022/05/31 08:57:21;;;;;;;5.47;4.40;;;;;;;33.16;47.89;99417.69;5011830;28;20221;-69
2022/05/31 08:59:52;;;;;;;4.28;3.97;;;;;;;32.56;47.63;99409.25;5012061;28;20202;-69
2022/05/31 09:02:24;;;;;;;4.43;4.13;;;;;;;32.31;50.98;99407.91;5012186;28;20210;-68
2022/05/31 09:05:02;;;;;;;4.90;4.63;;;;;;;32.66;51.59;99409.81;5012748;28;20198;-69
2022/05/31 09:07:36;;;;;;;4.45;4.05;;;;;;;33.07;49.52;99408.19;5012302;28;20194;-68
2022/05/31 09:10:07;;;;;;;3.65;3.53;;;;;;;33.14;47.90;99401.13;5012761;28;20260;-68
2022/05/31 09:12:41;;;;;;;4.32;4.03;;;;;;;33.18;48.76;99413.00;5012667;28;20687;-68
2022/05/31 09:15:16;;;;;;;5.75;5.35;;;;;;;33.07;46.59;99415.31;5012811;28;20543;-68
2022/05/31 09:17:54;;;;;;;5.40;3.60;;;;;;;33.28;46.44;99416.16;5012082;28;20221;-68
2022/05/31 09:20:32;;;;;;;3.53;3.33;;;;;;;32.83;47.14;99407.75;5012505;28;20205;-68
2022/05/31 09:23:00;;;;;;;3.97;3.70;;;;;;;32.97;48.91;99410.31;5012196;28;20208;-68
2022/05/31 09:25:27;;;;;;;3.83;3.53;;;;;;;33.02;49.02;99413.22;5012598;28;20202;-68
2022/05/31 09:27:54;;;;;;;3.50;3.38;;;;;;;32.95;47.05;99399.09;5012790;28;20253;-68
2022/05/31 09:30:26;;;;;;;4.45;4.07;;;;;;;33.15;48.02;99408.06;5012134;28;20203;-68
2022/05/31 09:33:10;;;;;;;7.65;4.10;;;;;;;33.36;46.81;99411.72;5012615;28;20634;-68
2022/05/31 09:36:00;;;;;;;3.53;3.40;;;;;;;33.39;45.50;99403.38;5011253;28;20238;-68
2022/05/31 09:38:54;;;;;;;5.55;4.00;;;;;;;32.81;46.41;99405.25;5011522;28;20288;-68
2022/05/31 09:41:26;;;;;;;5.35;4.63;;;;;;;32.84;47.91;99401.41;5012335;28;20202;-67
2022/05/31 09:44:02;;;;;;;3.95;3.63;;;;;;;32.86;48.04;99402.06;5004561;28;20198;-68
2022/05/31 09:46:36;;;;;;;5.20;4.38;;;;;;;32.65;49.48;99378.94;5007782;28;20197;-68
2022/05/31 09:49:15;;;;;;;4.30;3.92;;;;;;;32.63;49.29;99391.59;5001506;28;20253;-67
2022/05/31 09:51:44;;;;;;;4.70;4.45;;;;;;;32.57;50.07;99371.09;5011721;28;20198;-68
2022/05/31 09:57:08;;;;;;;10.25;6.90;;;;;;;32.74;48.33;99381.28;5012207;28;20216;-68
2022/05/31 09:59:40;;;;;;;4.20;4.00;;;;;;;33.03;48.66;99383.00;5011940;28;20739;-69
2022/05/31 10:02:19;;;;;;;4.18;3.80;;;;;;;33.22;47.32;99382.38;5012098;28;20204;-69
2022/05/31 10:04:49;;;;;;;6.60;6.03;;;;;;;33.40;46.45;99371.31;5011945;28;20211;-68
2022/05/31 10:07:32;;;;;;;4.88;4.40;;;;;;;33.57;44.73;99374.50;5011877;28;20666;-68
2022/05/31 10:10:02;;;;;;;4.30;4.10;;;;;;;33.52;46.56;99372.41;5011187;28;20198;-67
2022/05/31 10:12:31;;;;;;;3.75;3.55;;;;;;;33.54;46.44;99369.56;5011810;28;20673;-68
2022/05/31 10:15:03;;;;;;;4.47;4.07;;;;;;;33.42;45.55;99371.91;5007048;28;20220;-68
2022/05/31 10:17:36;;;;;;;4.40;4.00;;;;;;;33.38;44.96;99361.88;5010652;28;20276;-68
2022/05/31 10:20:15;;;;;;;5.05;4.75;;;;;;;33.35;44.83;99367.56;5009759;28;20709;-68
2022/05/31 10:22:53;;;;;;;4.43;4.22;;;;;;;33.35;44.08;99356.91;5011482;28;20564;-67
2022/05/31 10:25:22;;;;;;;4.25;3.60;;;;;;;33.31;44.96;99359.16;5011430;28;20271;-69
2022/05/31 10:27:49;;;;;;;3.97;3.67;;;;;;;33.45;45.11;99341.47;5011570;28;20637;-67
2022/05/31 10:30:23;;;;;;;8.35;4.93;;;;;;;33.50;44.34;99355.00;5011874;28;20198;-67
2022/05/31 10:32:52;;;;;;;4.78;4.50;;;;;;;33.33;47.63;99351.00;5011833;28;20206;-68
2022/05/31 10:35:24;;;;;;;4.68;4.38;;;;;;;33.33;43.88;99358.97;5011934;28;20190;-68
2022/05/31 10:38:03;;;;;;;5.20;4.90;;;;;;;33.02;46.37;99356.66;5011418;28;20222;-68
2022/05/31 10:40:41;;;;;;;6.80;6.20;;;;;;;33.18;45.71;99356.41;5012128;28;20217;-68
2022/05/31 10:43:35;;;;;;;6.28;5.55;;;;;;;33.47;46.49;99347.44;5011588;28;20201;-68
2022/05/31 10:46:10;;;;;;;8.57;5.65;;;;;;;33.67;46.33;99354.53;5011512;28;20268;-68
2022/05/31 10:48:46;;;;;;;5.20;4.65;;;;;;;33.87;45.44;99348.50;5011976;28;20197;-68
2022/05/31 10:51:19;;;;;;;3.72;3.53;;;;;;;33.82;43.67;99351.75;5011598;28;20210;-69
2022/05/31 10:53:59;;;;;;;4.18;3.88;;;;;;;33.81;43.02;99357.25;5012013;28;20297;-68
2022/05/31 10:56:36;;;;;;;4.75;4.18;;;;;;;33.40;43.92;99349.22;5011501;28;20197;-68
2022/05/31 10:59:06;;;;;;;4.25;4.05;;;;;;;33.32;42.52;99359.97;5011292;28;20236;-69
2022/05/31 11:01:49;;;;;;;4.22;4.03;;;;;;;33.10;41.76;99344.06;5011147;28;20273;-68
2022/05/31 11:04:35;;;;;;;4.35;4.00;;;;;;;33.13;42.60;99338.38;5011147;28;20225;-68
2022/05/31 11:07:13;;;;;;;4.47;4.13;;;;;;;33.25;43.04;99338.66;5011411;28;20230;-67
2022/05/31 11:12:52;;;;;;;7.47;4.80;;;;;;;33.38;43.16;99332.66;5009060;28;20296;-67
2022/05/31 11:15:31;;;;;;;5.18;4.85;;;;;;;33.35;44.65;99317.06;5011360;28;20202;-68
2022/05/31 11:18:17;;;;;;;4.45;4.15;;;;;;;33.24;43.64;99290.03;5010889;28;20685;-67
2022/05/31 11:20:51;;;;;;;5.38;4.35;;;;;;;33.36;42.49;99297.44;5011272;28;20655;-69
2022/05/31 11:23:42;;;;;;;4.00;3.70;;;;;;;33.21;41.99;99300.22;5013691;28;20202;-68
2022/05/31 11:26:28;;;;;;;4.32;3.83;;;;;;;33.26;44.22;99298.63;5007617;28;20556;-68
2022/05/31 11:29:20;;;;;;;3.80;3.58;;;;;;;33.44;42.93;99302.63;5014732;28;20212;-68
2022/05/31 11:31:57;;;;;;;4.00;3.58;;;;;;;33.56;42.01;99288.59;5012493;28;20217;-67
2022/05/31 11:34:40;;;;;;;4.22;3.85;;;;;;;33.39;44.10;99292.56;5009305;28;20648;-68
2022/05/31 11:37:24;;;;;;;4.18;3.75;;;;;;;33.40;41.04;99293.41;5014526;28;20785;-68
2022/05/31 11:40:07;;;;;;;4.45;4.15;;;;;;;33.40;42.72;99274.78;5008741;28;20202;-68
2022/05/31 11:42:48;;;;;;;4.22;4.03;;;;;;;33.51;39.91;99296.31;5014396;28;20201;-68
2022/05/31 11:45:24;;;;;;;5.88;3.28;;;;;;;33.60;39.96;99283.72;5012851;28;20292;-69
2022/05/31 11:48:06;;;;;;;3.60;3.30;;;;;;;33.61;40.01;99280.88;5014534;28;20330;-69
2022/05/31 11:50:51;;;;;;;5.10;4.43;;;;;;;33.60;39.68;99283.72;5014902;28;20202;-69
2022/05/31 11:53:43;;;;;;;3.05;2.85;;;;;;;33.61;39.57;99296.00;5004595;28;20638;-68
2022/05/31 11:56:13;;;;;;;4.28;3.63;;;;;;;33.54;39.44;99263.22;5011562;28;20252;-68
2022/05/31 11:58:48;;;;;;;3.28;3.08;;;;;;;33.58;38.30;99297.19;5014504;28;20758;-68
2022/05/31 12:01:20;;;;;;;4.72;4.13;;;;;;;33.52;40.69;99286.50;5014502;28;20201;-68
2022/05/31 12:03:55;;;;;;;6.95;4.18;;;;;;;33.74;42.61;99296.06;5013968;28;20261;-68
2022/05/31 12:06:33;;;;;;;3.58;3.47;;;;;;;33.79;41.95;99283.00;5014226;28;20224;-68
2022/05/31 12:09:08;;;;;;;7.70;5.63;;;;;;;33.63;39.88;99294.81;5013651;28;20198;-69
2022/05/31 12:11:39;;;;;;;6.05;4.15;;;;;;;33.67;41.37;99287.22;5014034;28;20206;-68